createdAt,value
2022-11-01T00:18:42.758Z,16.86
2022-11-01T00:38:42.720Z,17.43
2022-11-01T00:58:42.672Z,17.35
2022-11-01T01:18:42.642Z,17.56
2022-11-01T01:38:42.591Z,17.47
2022-11-01T01:58:42.563Z,17.35
2022-11-01T02:18:42.512Z,17.16
2022-11-01T02:38:42.481Z,17.05
2022-11-01T03:18:42.401Z,17.01
2022-11-01T03:38:42.358Z,16.77
2022-11-01T03:58:42.320Z,16.72
2022-11-01T04:18:42.282Z,16.69
2022-11-01T04:38:42.264Z,16.65
2022-11-01T04:58:43.218Z,16.69
2022-11-01T05:18:42.162Z,17
2022-11-01T05:38:42.130Z,17.16
2022-11-01T05:58:42.096Z,17.27
2022-11-01T06:18:42.041Z,16.93
2022-11-01T06:38:41.996Z,16.85
2022-11-01T06:58:41.951Z,16.44
2022-11-01T07:38:41.883Z,15.37
2022-11-01T07:58:41.839Z,15.09
2022-11-01T08:18:41.808Z,15.7
2022-11-01T08:38:41.767Z,15.97
2022-11-01T08:58:41.712Z,16.25
2022-11-01T09:18:41.740Z,16.2
2022-11-01T09:38:41.650Z,16.23
2022-11-01T09:58:41.601Z,16.54
2022-11-01T10:18:41.553Z,16.69
2022-11-01T10:58:41.507Z,17.33
2022-11-01T11:18:41.450Z,17.7
2022-11-01T11:38:41.400Z,18.3
2022-11-01T11:58:41.366Z,17.92
2022-11-01T12:18:41.316Z,18.18
2022-11-01T12:58:41.261Z,17.92
2022-11-01T13:38:41.156Z,17.91
2022-11-01T13:58:41.122Z,17.67
2022-11-01T14:18:41.074Z,17.73
2022-11-01T14:38:41.043Z,17.44
2022-11-01T14:58:40.990Z,17.24
2022-11-01T15:18:40.955Z,16.74
2022-11-01T15:38:40.918Z,15.98
2022-11-01T15:58:40.878Z,15.55
2022-11-01T16:18:40.875Z,14.96
2022-11-01T16:38:40.831Z,14.84
2022-11-01T16:58:40.762Z,14.69
2022-11-01T17:18:40.720Z,14.63
2022-11-01T17:38:40.676Z,14.42
2022-11-01T17:58:40.649Z,14.34
2022-11-01T18:18:40.615Z,14.3
2022-11-01T18:38:40.564Z,14.13
2022-11-01T18:58:40.576Z,13.9
2022-11-01T19:18:42.272Z,13.59
2022-11-01T19:38:40.454Z,13.33
2022-11-01T19:58:42.081Z,13.01
2022-11-01T20:18:40.387Z,12.89
2022-11-01T20:38:40.338Z,12.83
2022-11-01T20:58:40.593Z,12.77
2022-11-01T22:18:40.149Z,12.51
2022-11-01T23:58:39.968Z,13.6
